Time;durP1;ratioP1;P1;durP2;ratioP2;P2;SDS_P1;SDS_P2;PMS_P1;PMS_P2;Temp;Humidity;BMP_temperature;BMP_pressure;BME280_temperature;BME280_humidity;BME280_pressure;Samples;Min_cycle;Max_cycle;Signal;HPM_P1;HPM_P2
2024/01/18 00:01:31;;;;;;;43.13;20.98;;;-0.60;99.90;;;;;;5099212;28;20020;-51
2024/01/18 00:03:58;;;;;;;38.70;19.92;;;-0.60;99.90;;;;;;5099546;28;20023;-50
2024/01/18 00:06:23;;;;;;;34.78;18.98;;;-0.60;99.90;;;;;;5100564;28;20393;-52
2024/01/18 00:08:49;;;;;;;44.75;22.25;;;-0.60;99.90;;;;;;5098317;28;20032;-51
2024/01/18 00:11:16;;;;;;;36.05;19.50;;;-0.60;99.90;;;;;;5101358;28;20031;-51
2024/01/18 00:13:42;;;;;;;38.75;20.13;;;-0.60;99.90;;;;;;5098307;28;20040;-50
2024/01/18 00:16:08;;;;;;;39.15;20.38;;;-0.60;99.90;;;;;;5099946;28;20055;-50
2024/01/18 00:18:34;;;;;;;44.25;20.35;;;-0.50;99.90;;;;;;5099626;28;20283;-53
2024/01/18 00:20:59;;;;;;;38.28;21.33;;;-0.50;99.90;;;;;;5100296;28;20489;-49
2024/01/18 00:23:25;;;;;;;37.00;20.27;;;-0.50;99.90;;;;;;5099735;28;20543;-50
2024/01/18 00:25:51;;;;;;;39.67;19.63;;;-0.50;99.90;;;;;;5094081;28;20016;-49
2024/01/18 00:28:16;;;;;;;37.45;19.27;;;-0.50;99.90;;;;;;5101860;28;20389;-52
2024/01/18 00:30:42;;;;;;;36.40;19.40;;;-0.50;99.90;;;;;;5098339;28;20048;-49
2024/01/18 00:33:07;;;;;;;39.17;19.02;;;-0.50;99.90;;;;;;5101320;28;20551;-51
2024/01/18 00:35:33;;;;;;;35.38;18.17;;;-0.50;99.90;;;;;;5098598;28;20027;-52
2024/01/18 00:37:59;;;;;;;38.20;17.92;;;-0.40;99.90;;;;;;5099887;28;20009;-49
2024/01/18 00:40:24;;;;;;;38.85;19.73;;;-0.40;99.90;;;;;;5099367;28;20136;-49
2024/01/18 00:42:50;;;;;;;33.50;18.02;;;-0.40;99.90;;;;;;5098721;28;20400;-50
2024/01/18 00:45:16;;;;;;;35.13;20.27;;;-0.40;99.90;;;;;;5096816;28;20129;-50
2024/01/18 00:47:41;;;;;;;37.22;18.70;;;-0.40;99.90;;;;;;5097681;28;20059;-51
2024/01/18 00:50:07;;;;;;;37.80;19.05;;;-0.40;99.90;;;;;;5098229;28;20104;-50
2024/01/18 00:52:33;;;;;;;36.67;19.63;;;-0.40;99.90;;;;;;5100602;28;20034;-52
2024/01/18 00:54:59;;;;;;;40.33;20.27;;;-0.40;99.90;;;;;;5102910;28;20035;-51
2024/01/18 00:57:24;;;;;;;39.92;18.98;;;-0.40;99.90;;;;;;5101920;28;20058;-51
2024/01/18 00:59:51;;;;;;;39.35;18.17;;;-0.40;99.90;;;;;;5102548;28;20095;-52
2024/01/18 01:02:16;;;;;;;38.40;18.75;;;-0.40;99.90;;;;;;5102511;28;20430;-52
2024/01/18 01:04:42;;;;;;;35.05;18.77;;;-0.30;99.90;;;;;;5103206;28;20026;-52
2024/01/18 01:07:07;;;;;;;34.63;18.75;;;-0.30;99.90;;;;;;5105440;28;20024;-52
2024/01/18 01:09:33;;;;;;;39.08;18.55;;;-0.40;99.90;;;;;;5104380;28;20024;-52
2024/01/18 01:11:58;;;;;;;43.72;19.85;;;-0.30;99.90;;;;;;5104133;28;20028;-50
2024/01/18 01:14:24;;;;;;;35.22;18.95;;;-0.30;99.90;;;;;;5106011;28;20095;-52
2024/01/18 01:16:49;;;;;;;37.25;19.27;;;-0.30;99.90;;;;;;5102912;28;20024;-50
2024/01/18 01:19:15;;;;;;;37.05;19.55;;;-0.30;99.90;;;;;;5106399;28;20030;-53
2024/01/18 01:21:40;;;;;;;34.85;19.08;;;-0.30;99.90;;;;;;5103332;28;20049;-51
2024/01/18 01:24:06;;;;;;;45.92;20.58;;;-0.30;99.90;;;;;;5105342;28;20491;-51
2024/01/18 01:26:31;;;;;;;40.67;22.25;;;-0.30;99.90;;;;;;5105304;28;20477;-51
2024/01/18 01:28:57;;;;;;;40.17;19.30;;;-0.30;99.90;;;;;;5104071;28;20026;-50
2024/01/18 01:31:22;;;;;;;40.00;20.02;;;-0.30;99.90;;;;;;5105881;28;20026;-52
2024/01/18 01:33:49;;;;;;;39.58;20.83;;;-0.30;99.90;;;;;;5102989;28;20062;-51
2024/01/18 01:36:14;;;;;;;36.10;18.88;;;-0.30;99.90;;;;;;5104910;28;20065;-53
2024/01/18 01:38:40;;;;;;;38.67;19.85;;;-0.30;99.90;;;;;;5103675;28;20299;-50
2024/01/18 01:41:06;;;;;;;41.63;19.25;;;-0.20;99.90;;;;;;5104932;28;20448;-52
2024/01/18 01:43:32;;;;;;;37.03;18.50;;;-0.30;99.90;;;;;;5105124;28;20416;-49
2024/01/18 01:45:57;;;;;;;39.97;19.48;;;-0.30;99.90;;;;;;5102787;28;20273;-51
2024/01/18 01:48:24;;;;;;;39.50;19.30;;;-0.30;99.90;;;;;;5106537;28;20473;-54
2024/01/18 01:50:49;;;;;;;35.30;18.42;;;-0.30;99.90;;;;;;5103052;28;20024;-58
2024/01/18 01:53:18;;;;;;;35.88;19.33;;;-0.30;99.90;;;;;;5106319;28;20088;-53
2024/01/18 01:55:44;;;;;;;36.15;19.05;;;-0.30;99.90;;;;;;5102598;28;20020;-51
2024/01/18 01:58:12;;;;;;;34.75;18.73;;;-0.20;99.90;;;;;;5105788;28;20447;-40
2024/01/18 02:00:37;;;;;;;40.63;20.58;;;-0.30;99.90;;;;;;5104116;28;20027;-40
2024/01/18 02:03:04;;;;;;;42.75;19.15;;;-0.30;99.90;;;;;;5102106;28;20058;-40
2024/01/18 02:05:30;;;;;;;34.33;18.98;;;-0.30;99.90;;;;;;5102705;28;20051;-40
2024/01/18 02:07:55;;;;;;;35.75;19.42;;;-0.30;99.90;;;;;;5104148;28;20052;-40
2024/01/18 02:10:22;;;;;;;36.20;20.73;;;-0.20;99.90;;;;;;5106015;27;20568;-40
2024/01/18 02:12:51;;;;;;;42.45;20.42;;;-0.30;99.90;;;;;;5103451;27;20393;-40
2024/01/18 02:15:18;;;;;;;36.78;20.13;;;-0.30;99.90;;;;;;5106322;28;20046;-40
2024/01/18 02:17:44;;;;;;;36.08;18.98;;;-0.20;99.90;;;;;;5104008;28;20023;-40
2024/01/18 02:20:10;;;;;;;35.63;19.00;;;-0.20;99.90;;;;;;5105646;28;20460;-40
2024/01/18 02:22:42;;;;;;;34.08;20.20;;;-0.20;99.90;;;;;;5105017;28;20032;-40
2024/01/18 02:25:21;;;;;;;37.28;19.58;;;-0.20;99.90;;;;;;5105615;28;20469;-40
2024/01/18 02:27:47;;;;;;;41.30;19.75;;;-0.20;99.90;;;;;;5103529;28;20103;-40
2024/01/18 02:30:13;;;;;;;35.85;19.45;;;-0.30;99.90;;;;;;5105846;28;20248;-40
2024/01/18 02:32:38;;;;;;;36.22;19.42;;;-0.30;99.90;;;;;;5103253;28;20464;-40
2024/01/18 02:35:04;;;;;;;39.38;20.50;;;-0.30;99.90;;;;;;5099054;28;20133;-40
2024/01/18 02:37:31;;;;;;;49.33;22.23;;;-0.30;99.90;;;;;;5105373;28;20032;-40
2024/01/18 02:39:56;;;;;;;42.83;20.42;;;-0.30;99.90;;;;;;5101478;28;20028;-40
2024/01/18 02:42:22;;;;;;;42.50;21.95;;;-0.40;99.90;;;;;;5093718;28;20032;-40
2024/01/18 02:44:48;;;;;;;40.75;22.65;;;-0.40;99.90;;;;;;5091905;28;20433;-39
2024/01/18 02:47:13;;;;;;;40.70;21.67;;;-0.40;99.90;;;;;;5092493;28;20028;-39
2024/01/18 02:49:39;;;;;;;46.92;22.23;;;-0.40;99.90;;;;;;5091783;28;20046;-39
2024/01/18 02:52:05;;;;;;;47.80;22.95;;;-0.40;99.90;;;;;;5091347;28;20028;-40
2024/01/18 02:54:31;;;;;;;44.22;22.23;;;-0.40;99.90;;;;;;5091440;28;20038;-39
2024/01/18 02:56:57;;;;;;;40.22;22.80;;;-0.50;99.90;;;;;;5094286;28;20024;-40
2024/01/18 02:59:23;;;;;;;42.67;21.58;;;-0.50;99.90;;;;;;5100957;28;20492;-40
2024/01/18 03:01:48;;;;;;;40.80;20.70;;;-0.40;99.90;;;;;;5099323;28;20048;-40
2024/01/18 03:04:14;;;;;;;37.63;19.77;;;-0.40;99.90;;;;;;5104235;28;20023;-40
2024/01/18 03:06:39;;;;;;;41.63;21.58;;;-0.40;99.90;;;;;;5101245;28;20032;-41
2024/01/18 03:09:05;;;;;;;42.28;23.48;;;-0.50;99.90;;;;;;5103776;28;20015;-43
2024/01/18 03:11:30;;;;;;;42.58;21.65;;;-0.50;99.90;;;;;;5102839;28;20022;-41
2024/01/18 03:13:56;;;;;;;43.45;22.02;;;-0.40;99.90;;;;;;5102033;28;20023;-39
2024/01/18 03:16:22;;;;;;;41.55;21.88;;;-0.50;99.90;;;;;;5103111;28;20020;-39
2024/01/18 03:18:47;;;;;;;45.45;23.38;;;-0.50;99.90;;;;;;5099743;28;20137;-39
2024/01/18 03:21:13;;;;;;;46.28;25.27;;;-0.60;99.90;;;;;;5103809;28;20058;-39
2024/01/18 03:23:39;;;;;;;40.38;22.00;;;-0.60;99.90;;;;;;5101725;28;20023;-40
2024/01/18 03:26:04;;;;;;;42.28;23.33;;;-0.50;99.90;;;;;;5105241;28;20059;-40
2024/01/18 03:28:30;;;;;;;47.17;22.95;;;-0.50;99.90;;;;;;5106382;28;20542;-40
2024/01/18 03:30:55;;;;;;;46.28;23.33;;;-0.60;99.90;;;;;;5103985;27;20028;-40
2024/01/18 03:33:21;;;;;;;41.58;22.58;;;-0.60;99.90;;;;;;5106400;28;20072;-41
2024/01/18 03:35:46;;;;;;;43.38;21.90;;;-0.50;99.90;;;;;;5102384;28;20063;-40
2024/01/18 03:38:12;;;;;;;44.78;23.20;;;-0.60;99.90;;;;;;5093087;28;20023;-40
2024/01/18 03:40:38;;;;;;;46.85;23.58;;;-0.60;99.90;;;;;;5105364;28;20034;-40
2024/01/18 03:43:03;;;;;;;50.15;22.35;;;-0.60;99.90;;;;;;5105575;28;20038;-40
2024/01/18 03:45:29;;;;;;;45.90;23.50;;;-0.60;99.90;;;;;;5106461;28;20047;-40
2024/01/18 03:47:54;;;;;;;42.78;20.85;;;-0.60;99.90;;;;;;5103579;28;20350;-40
2024/01/18 03:50:20;;;;;;;44.53;23.00;;;-0.60;99.90;;;;;;5106226;28;20515;-40
2024/01/18 03:52:45;;;;;;;50.83;25.83;;;-0.60;99.90;;;;;;5104838;28;20028;-40
2024/01/18 03:55:11;;;;;;;42.05;22.02;;;-0.60;99.90;;;;;;5106428;28;20020;-40
2024/01/18 03:57:37;;;;;;;44.35;23.77;;;-0.70;99.90;;;;;;5106430;28;20020;-40
2024/01/18 04:00:04;;;;;;;51.40;25.70;;;-0.60;99.90;;;;;;5104990;28;20008;-40
2024/01/18 04:02:30;;;;;;;45.03;24.27;;;-0.70;99.90;;;;;;5098721;28;20059;-40
2024/01/18 04:04:55;;;;;;;43.38;22.77;;;-0.70;99.90;;;;;;5103762;28;20533;-40
2024/01/18 04:07:22;;;;;;;46.65;24.83;;;-0.70;99.90;;;;;;5101662;28;20111;-40
2024/01/18 04:09:47;;;;;;;44.25;24.48;;;-0.70;99.90;;;;;;5102229;28;20012;-39
2024/01/18 04:12:13;;;;;;;46.63;23.15;;;-0.70;99.90;;;;;;5102903;28;20046;-39
2024/01/18 04:14:43;;;;;;;48.78;24.15;;;-0.70;99.90;;;;;;5096752;28;20027;-39
2024/01/18 04:17:11;;;;;;;52.20;26.58;;;-0.70;99.90;;;;;;5097727;28;20069;-40
2024/01/18 04:19:38;;;;;;;49.05;25.65;;;-0.80;99.90;;;;;;5086569;28;20124;-40
2024/01/18 04:22:03;;;;;;;52.80;24.05;;;-0.80;99.90;;;;;;5089826;28;20020;-40
2024/01/18 04:24:29;;;;;;;50.90;26.52;;;-0.80;99.90;;;;;;5098123;28;20422;-40
2024/01/18 04:26:55;;;;;;;45.65;24.60;;;-0.80;99.90;;;;;;5100447;28;20026;-39
2024/01/18 04:29:20;;;;;;;52.03;25.98;;;-0.80;99.90;;;;;;5099829;28;20020;-40
2024/01/18 04:31:46;;;;;;;49.40;25.38;;;-0.80;99.90;;;;;;5095197;28;20024;-39
2024/01/18 04:34:12;;;;;;;49.55;26.25;;;-0.80;99.90;;;;;;5098533;28;20030;-39
2024/01/18 04:36:38;;;;;;;52.22;26.15;;;-0.80;99.90;;;;;;5096398;28;20374;-39
2024/01/18 04:39:03;;;;;;;43.60;25.45;;;-0.80;99.90;;;;;;5105373;28;20226;-40
2024/01/18 04:41:29;;;;;;;55.92;27.88;;;-0.80;99.90;;;;;;5106214;28;20655;-39
2024/01/18 04:43:54;;;;;;;56.08;27.70;;;-0.80;99.90;;;;;;5105021;28;20480;-41
2024/01/18 04:46:22;;;;;;;49.28;25.42;;;-0.80;99.90;;;;;;5094727;28;20032;-39
2024/01/18 04:48:48;;;;;;;46.63;25.83;;;-0.80;99.90;;;;;;5088492;28;20031;-40
2024/01/18 04:51:13;;;;;;;52.60;25.67;;;-0.80;99.90;;;;;;5092447;28;20027;-39
2024/01/18 04:53:39;;;;;;;48.88;26.23;;;-0.90;99.90;;;;;;5092207;28;20398;-39
2024/01/18 04:56:06;;;;;;;51.13;25.20;;;-0.90;99.90;;;;;;5091523;28;20458;-38
2024/01/18 04:58:31;;;;;;;64.38;29.35;;;-0.80;99.90;;;;;;5092293;28;20119;-39
2024/01/18 05:00:57;;;;;;;55.60;28.50;;;-0.80;99.90;;;;;;5091310;28;20418;-39
2024/01/18 05:03:22;;;;;;;65.03;30.40;;;-0.80;99.90;;;;;;5089289;28;20111;-40
2024/01/18 05:05:48;;;;;;;55.15;28.10;;;-0.80;99.90;;;;;;5088432;28;20043;-39
2024/01/18 05:08:14;;;;;;;54.38;28.27;;;-0.80;99.90;;;;;;5089843;28;20477;-38
2024/01/18 05:10:39;;;;;;;54.38;26.90;;;-0.80;99.90;;;;;;5088925;28;20031;-39
2024/01/18 05:13:05;;;;;;;50.85;27.65;;;-0.80;99.90;;;;;;5089878;28;20523;-40
2024/01/18 05:15:30;;;;;;;58.60;27.25;;;-0.80;99.90;;;;;;5101869;28;20099;-39
2024/01/18 05:17:57;;;;;;;55.70;27.80;;;-0.90;99.90;;;;;;5106368;28;20023;-39
2024/01/18 05:20:23;;;;;;;52.55;27.92;;;-0.90;99.90;;;;;;5106889;28;20016;-40
2024/01/18 05:22:48;;;;;;;53.15;28.23;;;-0.90;99.90;;;;;;5103049;28;20558;-39
2024/01/18 05:25:14;;;;;;;53.13;27.25;;;-0.90;99.90;;;;;;5092490;28;20020;-39
2024/01/18 05:27:40;;;;;;;52.05;27.40;;;-0.80;99.90;;;;;;5091873;28;20024;-39
2024/01/18 05:30:07;;;;;;;43.72;24.48;;;-0.90;99.90;;;;;;5093764;28;20036;-39
2024/01/18 05:32:33;;;;;;;59.08;27.10;;;-0.80;99.90;;;;;;5092144;28;20024;-39
2024/01/18 05:35:01;;;;;;;48.65;26.20;;;-0.80;99.90;;;;;;5093753;28;20031;-39
2024/01/18 05:37:26;;;;;;;55.20;27.92;;;-0.80;99.90;;;;;;5092428;28;20057;-40
2024/01/18 05:39:52;;;;;;;51.90;27.13;;;-0.80;99.90;;;;;;5095445;28;20438;-39
2024/01/18 05:42:22;;;;;;;50.78;27.55;;;-0.90;99.90;;;;;;5111015;28;20463;-39
2024/01/18 05:44:48;;;;;;;;;;;-0.90;99.90;;;;;;5111272;28;20484;-39
2024/01/18 05:47:14;;;;;;;60.63;28.05;;;-0.90;99.90;;;;;;5111074;28;19910;-39
2024/01/18 05:49:39;;;;;;;47.35;26.80;;;-0.90;99.90;;;;;;5110831;28;20493;-39
2024/01/18 05:52:06;;;;;;;53.22;27.15;;;-0.90;99.90;;;;;;5110679;28;20099;-39
2024/01/18 05:54:33;;;;;;;53.95;27.77;;;-0.90;99.90;;;;;;5111366;28;20024;-40
2024/01/18 05:56:59;;;;;;;53.25;29.33;;;-0.80;99.90;;;;;;5110593;28;20414;-39
2024/01/18 05:59:25;;;;;;;58.22;29.25;;;-0.80;99.90;;;;;;5110911;27;20011;-39
2024/01/18 06:01:50;;;;;;;52.70;29.05;;;-0.80;99.90;;;;;;5110865;28;20469;-40
2024/01/18 06:04:16;;;;;;;56.67;30.00;;;-0.80;99.90;;;;;;5111722;28;20031;-39
2024/01/18 06:06:43;;;;;;;58.53;30.05;;;-0.80;99.90;;;;;;5111319;28;20020;-39
2024/01/18 06:09:09;;;;;;;64.82;30.65;;;-0.80;99.90;;;;;;5110864;28;20092;-39
2024/01/18 06:11:35;;;;;;;52.95;27.50;;;-0.80;99.90;;;;;;5109415;28;20117;-39
2024/01/18 06:14:01;;;;;;;52.28;29.58;;;-0.80;99.90;;;;;;5111104;28;20027;-39
2024/01/18 06:16:27;;;;;;;56.85;29.08;;;-0.80;99.90;;;;;;5111338;28;20034;-39
2024/01/18 06:18:53;;;;;;;69.22;30.83;;;-0.80;99.90;;;;;;5111113;28;20098;-41
2024/01/18 06:21:19;;;;;;;60.42;30.67;;;-0.80;99.90;;;;;;5111128;28;20429;-40
2024/01/18 06:23:44;;;;;;;59.22;28.88;;;-0.80;99.90;;;;;;5094685;28;20039;-39
2024/01/18 06:26:11;;;;;;;57.10;29.08;;;-0.80;99.90;;;;;;5091113;28;20029;-40
2024/01/18 06:28:38;;;;;;;55.53;28.75;;;-0.80;99.90;;;;;;5091066;28;20028;-41
2024/01/18 06:31:04;;;;;;;55.03;30.15;;;-0.80;99.90;;;;;;5090459;28;20507;-41
2024/01/18 06:33:30;;;;;;;54.92;29.33;;;-0.80;99.90;;;;;;5095531;28;20113;-40
2024/01/18 06:35:55;;;;;;;51.33;26.08;;;-0.80;99.90;;;;;;5097540;28;20074;-41
2024/01/18 06:38:21;;;;;;;51.60;27.65;;;-0.80;99.90;;;;;;5102830;28;20039;-40
2024/01/18 06:40:47;;;;;;;54.53;28.80;;;-0.80;99.90;;;;;;5099711;28;20021;-40
2024/01/18 06:43:14;;;;;;;61.53;32.30;;;-0.80;99.90;;;;;;5102560;28;20028;-43
2024/01/18 06:45:40;;;;;;;56.95;29.30;;;-0.80;99.90;;;;;;5097691;28;20124;-41
2024/01/18 06:48:06;;;;;;;57.70;30.65;;;-0.80;99.90;;;;;;5102204;28;20027;-45
2024/01/18 06:50:32;;;;;;;50.08;28.00;;;-0.80;99.90;;;;;;5100422;28;20035;-40
2024/01/18 06:52:59;;;;;;;59.17;31.80;;;-0.80;99.90;;;;;;5101043;28;20483;-40
2024/01/18 06:55:25;;;;;;;54.95;30.85;;;-0.80;99.90;;;;;;5091065;28;20054;-39
2024/01/18 06:57:50;;;;;;;61.45;31.10;;;-0.80;99.90;;;;;;5090733;28;20048;-41
2024/01/18 07:00:19;;;;;;;54.47;30.80;;;-0.80;99.90;;;;;;5090769;28;20024;-39
2024/01/18 07:02:46;;;;;;;56.67;30.92;;;-0.80;99.90;;;;;;5090950;28;20107;-41
2024/01/18 07:05:12;;;;;;;58.17;29.83;;;-0.80;99.90;;;;;;5091304;28;20085;-41
2024/01/18 07:07:37;;;;;;;66.40;31.17;;;-0.80;99.90;;;;;;5090718;28;20016;-41
2024/01/18 07:10:04;;;;;;;53.75;29.58;;;-0.80;99.90;;;;;;5090863;28;20039;-40
2024/01/18 07:12:30;;;;;;;59.53;31.13;;;-0.80;99.90;;;;;;5090902;28;20493;-40
2024/01/18 07:14:56;;;;;;;58.00;31.50;;;-0.80;99.90;;;;;;5091268;28;20262;-39
2024/01/18 07:17:22;;;;;;;55.85;28.70;;;-0.80;99.90;;;;;;5091103;28;20040;-40
2024/01/18 07:19:49;;;;;;;56.70;31.38;;;-0.80;99.90;;;;;;5088391;28;20059;-40
2024/01/18 07:22:15;;;;;;;63.22;31.83;;;-0.80;99.90;;;;;;5095087;28;20095;-41
2024/01/18 07:24:41;;;;;;;58.20;32.28;;;-0.80;99.90;;;;;;5090324;28;20044;-40
2024/01/18 07:27:09;;;;;;;62.17;32.10;;;-0.80;99.90;;;;;;5090619;28;20059;-40
2024/01/18 07:29:37;;;;;;;62.08;31.95;;;-0.80;99.90;;;;;;5084750;28;20032;-40
2024/01/18 07:32:02;;;;;;;53.60;29.60;;;-0.80;99.90;;;;;;5091397;28;20016;-40
2024/01/18 07:34:28;;;;;;;57.17;30.98;;;-0.80;99.90;;;;;;5090676;28;20020;-40
2024/01/18 07:36:55;;;;;;;56.33;31.60;;;-0.80;99.90;;;;;;5091578;28;20027;-40
2024/01/18 07:39:20;;;;;;;53.80;29.08;;;-0.80;99.90;;;;;;5089445;28;20028;-40
2024/01/18 07:41:46;;;;;;;64.22;35.22;;;-0.80;99.90;;;;;;5091035;28;20069;-40
2024/01/18 07:44:12;;;;;;;53.10;29.90;;;-0.80;99.90;;;;;;5092118;28;20031;-41
2024/01/18 07:46:37;;;;;;;61.08;33.50;;;-0.80;99.90;;;;;;5091716;28;20023;-40
2024/01/18 07:49:03;;;;;;;59.17;33.45;;;-0.90;99.90;;;;;;5091895;28;20035;-40
2024/01/18 07:51:30;;;;;;;56.75;31.50;;;-0.90;99.90;;;;;;5091087;28;20039;-40
2024/01/18 07:53:55;;;;;;;59.25;32.75;;;-0.80;99.90;;;;;;5091783;28;20037;-38
2024/01/18 07:56:21;;;;;;;65.25;33.90;;;-0.90;99.90;;;;;;5091018;28;20413;-38
2024/01/18 07:58:47;;;;;;;65.45;31.52;;;-0.90;99.90;;;;;;5090985;28;20013;-38
2024/01/18 08:01:18;;;;;;;58.15;32.28;;;-0.90;99.90;;;;;;5087892;28;20031;-38
2024/01/18 08:03:43;;;;;;;;;;;-0.80;99.90;;;;;;5091835;28;20101;-38
2024/01/18 08:06:11;;;;;;;62.67;32.47;;;-0.90;99.90;;;;;;5091935;28;19911;-38
2024/01/18 08:08:37;;;;;;;56.58;31.73;;;-0.90;99.90;;;;;;5091350;28;20342;-38
2024/01/18 08:11:03;;;;;;;65.78;33.72;;;-0.90;99.90;;;;;;5091970;28;20030;-40
2024/01/18 08:13:29;;;;;;;72.43;34.30;;;-0.90;99.90;;;;;;5090913;28;20024;-40
2024/01/18 08:15:57;;;;;;;61.65;33.45;;;-0.90;99.90;;;;;;5091984;28;20044;-40
2024/01/18 08:18:26;;;;;;;59.90;32.50;;;-0.90;99.90;;;;;;5091111;28;20016;-40
2024/01/18 08:20:51;;;;;;;59.78;32.63;;;-0.90;99.90;;;;;;5090116;28;20027;-40
2024/01/18 08:23:18;;;;;;;64.10;33.33;;;-0.90;99.90;;;;;;5091481;28;20028;-40
2024/01/18 08:25:44;;;;;;;57.75;31.30;;;-1.00;99.90;;;;;;5091399;28;20530;-40
2024/01/18 08:28:13;;;;;;;57.22;31.85;;;-0.90;99.90;;;;;;5094297;28;20034;-40
2024/01/18 08:30:39;;;;;;;58.65;33.63;;;-0.90;99.90;;;;;;5091176;28;20020;-40
2024/01/18 08:33:05;;;;;;;65.57;34.05;;;-1.00;99.90;;;;;;5090650;28;20392;-41
2024/01/18 08:35:30;;;;;;;63.33;33.40;;;-1.00;99.90;;;;;;5091456;28;20024;-40
2024/01/18 08:37:56;;;;;;;59.20;34.13;;;-1.00;99.90;;;;;;5092459;28;20025;-42
2024/01/18 08:40:21;;;;;;;66.78;36.22;;;-1.00;99.90;;;;;;5090889;28;20505;-40
2024/01/18 08:42:47;;;;;;;62.20;33.80;;;-1.00;99.90;;;;;;5091394;28;20020;-40
2024/01/18 08:45:12;;;;;;;62.42;33.53;;;-1.00;99.90;;;;;;5092950;28;20027;-40
2024/01/18 08:47:39;;;;;;;63.05;33.72;;;-1.00;99.90;;;;;;5091431;28;20394;-40
2024/01/18 08:50:06;;;;;;;68.38;35.85;;;-1.00;99.90;;;;;;5093983;28;20024;-40
2024/01/18 08:52:31;;;;;;;61.22;35.08;;;-1.00;99.90;;;;;;5090139;28;20034;-41
2024/01/18 08:54:57;;;;;;;63.67;33.88;;;-1.00;99.90;;;;;;5091620;28;20024;-47
2024/01/18 08:57:22;;;;;;;62.53;32.88;;;-1.00;99.90;;;;;;5098324;28;20417;-40
2024/01/18 08:59:48;;;;;;;74.18;35.28;;;-1.10;99.90;;;;;;5091392;28;20023;-40
2024/01/18 09:02:14;;;;;;;68.25;34.50;;;-1.10;99.90;;;;;;5091499;28;20023;-40
2024/01/18 09:04:40;;;;;;;67.05;33.25;;;-1.10;99.90;;;;;;5091462;28;20035;-40
2024/01/18 09:07:05;;;;;;;60.88;32.17;;;-1.10;99.90;;;;;;5093119;28;20024;-40
2024/01/18 09:09:31;;;;;;;64.80;35.65;;;-1.10;99.90;;;;;;5089526;28;20063;-41
2024/01/18 09:11:57;;;;;;;68.35;33.22;;;-1.10;99.90;;;;;;5092786;28;20036;-40
2024/01/18 09:14:23;;;;;;;63.10;32.20;;;-1.10;99.90;;;;;;5094738;28;20026;-40
2024/01/18 09:16:49;;;;;;;63.17;35.17;;;-1.10;99.90;;;;;;5092812;28;20115;-41
2024/01/18 09:19:15;;;;;;;65.47;35.50;;;-1.10;99.90;;;;;;5097414;28;20028;-40
2024/01/18 09:21:41;;;;;;;64.43;34.65;;;-1.10;99.90;;;;;;5102288;28;20062;-40
2024/01/18 09:24:08;;;;;;;58.40;34.58;;;-1.20;99.90;;;;;;5097842;28;20032;-40
2024/01/18 09:26:33;;;;;;;67.22;35.33;;;-1.20;99.90;;;;;;5094317;28;20388;-40
2024/01/18 09:28:59;;;;;;;68.55;34.35;;;-1.20;99.90;;;;;;5098095;28;20102;-40
2024/01/18 09:31:24;;;;;;;65.22;34.65;;;-1.10;99.90;;;;;;5092575;28;20118;-40
2024/01/18 09:33:50;;;;;;;61.58;35.60;;;-1.00;99.90;;;;;;5096137;28;20034;-40
2024/01/18 09:36:15;;;;;;;59.80;32.67;;;-0.90;99.90;;;;;;5095811;28;20430;-40
2024/01/18 09:38:41;;;;;;;60.65;33.42;;;-0.90;99.90;;;;;;5095624;28;20031;-40
2024/01/18 09:41:07;;;;;;;64.93;36.50;;;-0.80;99.90;;;;;;5095152;28;20024;-40
2024/01/18 09:43:37;;;;;;;59.70;33.72;;;-0.80;99.90;;;;;;5094671;28;20024;-40
2024/01/18 09:46:06;;;;;;;63.70;33.08;;;-0.70;99.90;;;;;;5094298;28;20481;-41
2024/01/18 09:48:35;;;;;;;60.05;35.70;;;-0.70;99.90;;;;;;5088842;28;20024;-41
2024/01/18 09:51:02;;;;;;;61.15;33.60;;;-0.50;99.90;;;;;;5093619;28;20201;-41
2024/01/18 09:53:28;;;;;;;58.15;32.63;;;-0.50;99.90;;;;;;5094522;28;20027;-40
2024/01/18 09:55:59;;;;;;;58.72;31.15;;;-0.40;99.90;;;;;;5095659;28;20080;-41
2024/01/18 09:58:25;;;;;;;53.58;31.48;;;-0.30;99.90;;;;;;5095892;28;20043;-40
2024/01/18 10:00:57;;;;;;;55.20;32.67;;;-0.30;99.90;;;;;;5095071;28;20024;-40
2024/01/18 10:03:23;;;;;;;55.45;32.28;;;-0.20;99.90;;;;;;5096796;28;20157;-40
2024/01/18 10:05:49;;;;;;;57.40;31.77;;;-0.10;99.90;;;;;;5100929;28;20392;-40
2024/01/18 10:08:15;;;;;;;60.83;33.28;;;0.00;99.90;;;;;;5098306;28;20016;-40
2024/01/18 10:10:42;;;;;;;59.38;34.30;;;0.00;99.90;;;;;;5095612;28;20481;-40
2024/01/18 10:13:11;;;;;;;51.58;30.60;;;0.10;99.90;;;;;;5097843;28;20016;-40
2024/01/18 10:15:36;;;;;;;52.97;30.17;;;0.20;99.90;;;;;;5096074;28;20089;-40
2024/01/18 10:18:04;;;;;;;50.60;29.30;;;0.30;99.90;;;;;;5096540;28;20028;-39
2024/01/18 10:20:30;;;;;;;55.58;30.45;;;0.30;99.90;;;;;;5095890;28;20008;-40
2024/01/18 10:22:55;;;;;;;46.22;30.63;;;0.40;99.90;;;;;;5096920;28;20081;-40
2024/01/18 10:25:24;;;;;;;48.58;28.58;;;0.40;99.90;;;;;;5096883;28;20027;-41
2024/01/18 10:27:56;;;;;;;51.35;28.20;;;0.40;99.90;;;;;;5095964;28;20017;-40
2024/01/18 10:30:23;;;;;;;47.38;28.33;;;0.50;99.90;;;;;;5096936;27;20047;-40
2024/01/18 10:32:49;;;;;;;56.15;31.77;;;0.60;99.90;;;;;;5095957;28;20024;-40
2024/01/18 10:35:20;;;;;;;48.40;28.52;;;0.70;99.90;;;;;;5098876;28;20026;-40
2024/01/18 10:37:45;;;;;;;;;;;1.00;99.90;;;;;;5092168;28;20023;-41
2024/01/18 10:40:19;;;;;;;40.40;24.35;;;2.00;99.90;;;;;;5097596;28;19915;-40
2024/01/18 10:42:46;;;;;;;35.58;22.35;;;3.50;99.90;;;;;;5092842;28;20024;-42
2024/01/18 10:45:12;;;;;;;36.83;22.20;;;5.20;99.90;;;;;;5095941;28;20027;-41
2024/01/18 10:47:38;;;;;;;36.65;21.25;;;6.70;99.90;;;;;;5091603;28;20024;-43
2024/01/18 10:50:06;;;;;;;25.00;18.55;;;8.00;99.90;;;;;;5097948;28;20020;-41
2024/01/18 10:52:34;;;;;;;22.90;17.55;;;9.20;97.90;;;;;;5093369;28;20024;-43
2024/01/18 10:55:01;;;;;;;27.23;19.00;;;10.20;95.00;;;;;;5097710;28;20036;-46
2024/01/18 10:57:26;;;;;;;26.27;18.35;;;10.50;92.00;;;;;;5097058;28;20020;-42
2024/01/18 10:59:52;;;;;;;19.63;15.70;;;11.30;91.30;;;;;;5096454;28;20028;-43
2024/01/18 11:02:19;;;;;;;20.45;16.35;;;11.90;89.20;;;;;;5098305;28;20020;-42
2024/01/18 11:04:46;;;;;;;20.45;15.27;;;12.10;86.50;;;;;;5093953;28;20077;-44
2024/01/18 11:07:13;;;;;;;21.98;16.60;;;12.50;84.80;;;;;;5098945;28;20048;-41
2024/01/18 11:09:39;;;;;;;17.83;15.23;;;12.60;81.60;;;;;;5096104;28;20031;-41
2024/01/18 11:12:07;;;;;;;21.50;15.45;;;13.00;81.40;;;;;;5098455;28;20024;-44
2024/01/18 11:14:33;;;;;;;17.45;13.80;;;13.20;80.40;;;;;;5096641;28;20045;-43
2024/01/18 11:17:06;;;;;;;18.63;13.95;;;13.30;80.60;;;;;;5097623;28;20099;-43
2024/01/18 11:19:43;;;;;;;20.35;13.73;;;13.00;79.70;;;;;;5096469;28;20095;-45
2024/01/18 11:22:10;;;;;;;19.60;15.32;;;13.50;79.10;;;;;;5098466;28;20036;-42
2024/01/18 11:24:37;;;;;;;18.73;13.52;;;13.70;76.80;;;;;;5091079;28;20065;-44
2024/01/18 11:27:19;;;;;;;18.35;14.48;;;13.90;77.30;;;;;;5098499;28;20038;-43
2024/01/18 11:29:47;;;;;;;21.98;14.00;;;14.00;75.40;;;;;;5090676;28;20497;-43
2024/01/18 11:32:14;;;;;;;18.80;13.82;;;13.70;75.90;;;;;;5092552;28;20066;-45
2024/01/18 11:34:40;;;;;;;17.35;12.48;;;14.50;74.90;;;;;;5095705;28;20016;-41
2024/01/18 11:37:14;;;;;;;16.75;11.95;;;14.50;74.00;;;;;;5097689;28;20027;-41
2024/01/18 11:39:53;;;;;;;15.35;11.77;;;14.40;74.10;;;;;;5095837;28;20028;-42
2024/01/18 11:42:29;;;;;;;14.35;11.30;;;14.60;72.20;;;;;;5093200;28;20028;-45
2024/01/18 11:45:04;;;;;;;14.90;10.18;;;14.60;73.20;;;;;;5092218;28;20016;-43
2024/01/18 11:47:31;;;;;;;18.92;13.18;;;14.50;73.20;;;;;;5096994;28;20124;-42
2024/01/18 11:49:58;;;;;;;14.75;11.52;;;14.40;73.00;;;;;;5096862;28;20028;-43
2024/01/18 11:52:25;;;;;;;14.82;11.85;;;14.10;73.80;;;;;;5098068;28;20068;-42
2024/01/18 11:54:54;;;;;;;13.60;9.85;;;14.30;72.30;;;;;;5096570;28;20016;-42
2024/01/18 11:57:20;;;;;;;17.50;9.63;;;14.50;71.80;;;;;;5098573;28;20484;-42
2024/01/18 11:59:46;;;;;;;15.57;10.27;;;14.00;72.50;;;;;;5096227;28;20069;-41
2024/01/18 12:02:12;;;;;;;12.30;9.68;;;13.90;72.80;;;;;;5097823;28;20016;-43
2024/01/18 12:04:38;;;;;;;11.27;8.40;;;14.00;72.00;;;;;;5094690;28;20097;-44
2024/01/18 12:07:05;;;;;;;11.13;8.52;;;13.90;73.40;;;;;;5098075;28;20473;-43
2024/01/18 12:09:31;;;;;;;13.02;9.40;;;14.20;71.50;;;;;;5093793;28;20024;-42
2024/01/18 12:11:57;;;;;;;16.45;9.50;;;14.50;70.90;;;;;;5095958;28;20039;-42
2024/01/18 12:14:23;;;;;;;12.50;8.65;;;14.30;71.40;;;;;;5090889;28;20031;-43
2024/01/18 12:16:49;;;;;;;14.65;9.70;;;14.20;71.40;;;;;;5090301;28;20030;-44
2024/01/18 12:19:35;;;;;;;13.43;9.95;;;13.90;73.00;;;;;;5092365;28;20019;-43
2024/01/18 12:22:02;;;;;;;14.15;9.23;;;13.40;73.00;;;;;;5092568;28;20499;-42
2024/01/18 12:24:28;;;;;;;11.75;9.13;;;12.80;74.10;;;;;;5098058;28;20145;-49